sensor_id;sensor_type;location;lat;lon;timestamp;pressure;altitude;pressure_sealevel;temperature;humidity
7474;BME280;3778;42.572;23.426;2024-03-25T00:01:27;92334.91;;;2.74;89.71
7474;BME280;3778;42.572;23.426;2024-03-25T00:03:53;92327.50;;;2.73;90.17
7474;BME280;3778;42.572;23.426;2024-03-25T00:06:19;92332.63;;;2.78;90.57
7474;BME280;3778;42.572;23.426;2024-03-25T00:08:44;92339.22;;;2.68;90.77
7474;BME280;3778;42.572;23.426;2024-03-25T00:11:10;92331.56;;;2.68;90.13
7474;BME280;3778;42.572;23.426;2024-03-25T00:13:35;92325.50;;;2.75;90.33
7474;BME280;3778;42.572;23.426;2024-03-25T00:16:00;92308.47;;;2.75;90.84
7474;BME280;3778;42.572;23.426;2024-03-25T00:18:26;92309.69;;;2.67;89.87
7474;BME280;3778;42.572;23.426;2024-03-25T00:20:51;92316.81;;;2.71;89.90
7474;BME280;3778;42.572;23.426;2024-03-25T00:23:17;92328.47;;;2.61;88.68
7474;BME280;3778;42.572;23.426;2024-03-25T00:25:43;92342.50;;;2.69;90.79
7474;BME280;3778;42.572;23.426;2024-03-25T00:28:08;92337.63;;;2.62;89.91
7474;BME280;3778;42.572;23.426;2024-03-25T00:30:34;92323.63;;;2.60;89.55
7474;BME280;3778;42.572;23.426;2024-03-25T00:32:59;92315.34;;;2.75;91.10
7474;BME280;3778;42.572;23.426;2024-03-25T00:35:25;92314.44;;;2.59;89.24
7474;BME280;3778;42.572;23.426;2024-03-25T00:37:50;92319.84;;;2.62;90.35
7474;BME280;3778;42.572;23.426;2024-03-25T00:40:16;92319.47;;;2.49;86.95
7474;BME280;3778;42.572;23.426;2024-03-25T00:42:42;92311.16;;;2.58;89.29
7474;BME280;3778;42.572;23.426;2024-03-25T00:45:07;92326.91;;;2.60;88.17
7474;BME280;3778;42.572;23.426;2024-03-25T00:47:33;92329.13;;;2.47;88.21
7474;BME280;3778;42.572;23.426;2024-03-25T00:49:59;92325.34;;;2.49;89.47
7474;BME280;3778;42.572;23.426;2024-03-25T00:52:24;92316.41;;;2.47;89.23
7474;BME280;3778;42.572;23.426;2024-03-25T00:54:49;92314.97;;;2.56;89.59
7474;BME280;3778;42.572;23.426;2024-03-25T00:57:15;92311.66;;;2.60;89.50
7474;BME280;3778;42.572;23.426;2024-03-25T00:59:41;92302.50;;;2.59;88.05
7474;BME280;3778;42.572;23.426;2024-03-25T01:02:06;92305.81;;;2.60;89.57
7474;BME280;3778;42.572;23.426;2024-03-25T01:04:33;92319.78;;;2.57;89.65
7474;BME280;3778;42.572;23.426;2024-03-25T01:06:59;92320.59;;;2.63;88.71
7474;BME280;3778;42.572;23.426;2024-03-25T01:09:24;92322.63;;;2.61;89.34
7474;BME280;3778;42.572;23.426;2024-03-25T01:11:51;92321.88;;;2.65;89.49
7474;BME280;3778;42.572;23.426;2024-03-25T01:14:16;92318.81;;;2.63;89.48
7474;BME280;3778;42.572;23.426;2024-03-25T01:16:41;92312.72;;;2.64;88.63
7474;BME280;3778;42.572;23.426;2024-03-25T01:19:08;92301.00;;;2.63;88.93
7474;BME280;3778;42.572;23.426;2024-03-25T01:21:34;92293.66;;;2.67;89.91
7474;BME280;3778;42.572;23.426;2024-03-25T01:24:00;92293.69;;;2.72;89.05
7474;BME280;3778;42.572;23.426;2024-03-25T01:26:25;92291.91;;;2.73;88.38
7474;BME280;3778;42.572;23.426;2024-03-25T01:28:51;92286.03;;;2.67;89.99
7474;BME280;3778;42.572;23.426;2024-03-25T01:31:17;92290.16;;;2.78;88.46
7474;BME280;3778;42.572;23.426;2024-03-25T01:33:43;92287.13;;;2.81;89.90
7474;BME280;3778;42.572;23.426;2024-03-25T01:36:08;92283.31;;;2.84;87.80
7474;BME280;3778;42.572;23.426;2024-03-25T01:38:36;92285.38;;;2.87;88.05
7474;BME280;3778;42.572;23.426;2024-03-25T01:41:12;92288.72;;;2.92;88.31
7474;BME280;3778;42.572;23.426;2024-03-25T01:43:38;92289.16;;;2.84;88.18
7474;BME280;3778;42.572;23.426;2024-03-25T01:46:04;92296.81;;;2.79;87.98
7474;BME280;3778;42.572;23.426;2024-03-25T01:48:31;92306.19;;;2.74;88.15
7474;BME280;3778;42.572;23.426;2024-03-25T01:50:56;92294.47;;;2.78;90.46
7474;BME280;3778;42.572;23.426;2024-03-25T01:53:23;92288.94;;;2.86;89.94
7474;BME280;3778;42.572;23.426;2024-03-25T01:55:51;92289.19;;;2.89;90.49
7474;BME280;3778;42.572;23.426;2024-03-25T01:58:21;92281.72;;;2.73;88.70
7474;BME280;3778;42.572;23.426;2024-03-25T02:00:46;92270.09;;;2.82;88.98
7474;BME280;3778;42.572;23.426;2024-03-25T02:03:13;92279.53;;;2.86;88.17
7474;BME280;3778;42.572;23.426;2024-03-25T02:05:39;92287.13;;;2.81;88.28
7474;BME280;3778;42.572;23.426;2024-03-25T02:08:06;92285.06;;;2.73;89.54
7474;BME280;3778;42.572;23.426;2024-03-25T02:10:32;92295.97;;;2.68;90.45
7474;BME280;3778;42.572;23.426;2024-03-25T02:12:58;92293.84;;;2.60;90.14
7474;BME280;3778;42.572;23.426;2024-03-25T02:15:23;92305.03;;;2.59;89.50
7474;BME280;3778;42.572;23.426;2024-03-25T02:17:51;92299.97;;;2.59;90.13
7474;BME280;3778;42.572;23.426;2024-03-25T02:20:17;92306.78;;;2.54;89.48
7474;BME280;3778;42.572;23.426;2024-03-25T02:22:43;92293.41;;;2.68;90.38
7474;BME280;3778;42.572;23.426;2024-03-25T02:25:09;92308.44;;;2.70;89.84
7474;BME280;3778;42.572;23.426;2024-03-25T02:27:38;92298.03;;;2.77;90.23
7474;BME280;3778;42.572;23.426;2024-03-25T02:30:07;92303.31;;;2.65;89.86
7474;BME280;3778;42.572;23.426;2024-03-25T02:32:34;92288.81;;;2.65;90.71
7474;BME280;3778;42.572;23.426;2024-03-25T02:35:01;92288.78;;;2.60;90.33
7474;BME280;3778;42.572;23.426;2024-03-25T02:37:27;92287.03;;;2.66;90.27
7474;BME280;3778;42.572;23.426;2024-03-25T02:39:56;92294.91;;;2.64;88.78
7474;BME280;3778;42.572;23.426;2024-03-25T02:42:23;92302.47;;;2.54;89.89
7474;BME280;3778;42.572;23.426;2024-03-25T02:44:48;92298.34;;;2.43;89.90
7474;BME280;3778;42.572;23.426;2024-03-25T02:47:14;92303.09;;;2.34;90.21
7474;BME280;3778;42.572;23.426;2024-03-25T02:49:40;92302.81;;;2.31;90.32
7474;BME280;3778;42.572;23.426;2024-03-25T02:52:05;92307.09;;;2.25;89.59
7474;BME280;3778;42.572;23.426;2024-03-25T02:54:31;92303.50;;;2.21;90.00
7474;BME280;3778;42.572;23.426;2024-03-25T02:56:56;92312.94;;;2.26;90.65
7474;BME280;3778;42.572;23.426;2024-03-25T02:59:22;92315.06;;;2.39;90.38
7474;BME280;3778;42.572;23.426;2024-03-25T03:01:47;92314.78;;;2.35;89.12
7474;BME280;3778;42.572;23.426;2024-03-25T03:04:13;92311.06;;;2.43;91.37
7474;BME280;3778;42.572;23.426;2024-03-25T03:06:38;92315.63;;;2.46;88.90
7474;BME280;3778;42.572;23.426;2024-03-25T03:09:03;92315.63;;;2.46;88.29
7474;BME280;3778;42.572;23.426;2024-03-25T03:11:29;92311.47;;;2.35;89.56
7474;BME280;3778;42.572;23.426;2024-03-25T03:13:54;92318.34;;;2.34;89.01
7474;BME280;3778;42.572;23.426;2024-03-25T03:16:20;92314.56;;;2.37;88.94
7474;BME280;3778;42.572;23.426;2024-03-25T03:18:45;92321.34;;;2.26;88.50
7474;BME280;3778;42.572;23.426;2024-03-25T03:21:10;92342.13;;;2.23;88.75
7474;BME280;3778;42.572;23.426;2024-03-25T03:23:36;92341.06;;;2.14;86.39
7474;BME280;3778;42.572;23.426;2024-03-25T03:26:02;92342.63;;;2.20;87.64
7474;BME280;3778;42.572;23.426;2024-03-25T03:28:27;92344.63;;;2.18;87.17
7474;BME280;3778;42.572;23.426;2024-03-25T03:30:54;92364.97;;;2.18;86.48
7474;BME280;3778;42.572;23.426;2024-03-25T03:33:19;92369.28;;;2.18;86.06
7474;BME280;3778;42.572;23.426;2024-03-25T03:35:45;92365.75;;;2.19;86.05
7474;BME280;3778;42.572;23.426;2024-03-25T03:38:10;92356.63;;;2.23;86.25
7474;BME280;3778;42.572;23.426;2024-03-25T03:40:35;92355.00;;;2.38;87.73
7474;BME280;3778;42.572;23.426;2024-03-25T03:43:01;92350.19;;;2.42;85.30
7474;BME280;3778;42.572;23.426;2024-03-25T03:45:26;92347.94;;;2.46;84.80
7474;BME280;3778;42.572;23.426;2024-03-25T03:47:57;92345.69;;;2.54;85.20
7474;BME280;3778;42.572;23.426;2024-03-25T03:50:23;92346.44;;;2.50;84.84
7474;BME280;3778;42.572;23.426;2024-03-25T03:52:48;92350.50;;;2.51;86.00
7474;BME280;3778;42.572;23.426;2024-03-25T03:55:14;92360.06;;;2.38;86.56
7474;BME280;3778;42.572;23.426;2024-03-25T03:57:39;92352.50;;;2.49;84.02
7474;BME280;3778;42.572;23.426;2024-03-25T04:00:05;92361.69;;;2.50;84.65
7474;BME280;3778;42.572;23.426;2024-03-25T04:02:31;92364.50;;;2.53;84.79
7474;BME280;3778;42.572;23.426;2024-03-25T04:04:56;92376.81;;;2.61;82.66
7474;BME280;3778;42.572;23.426;2024-03-25T04:07:22;92390.50;;;2.60;81.55
7474;BME280;3778;42.572;23.426;2024-03-25T04:09:53;92388.25;;;2.64;82.18
7474;BME280;3778;42.572;23.426;2024-03-25T04:12:18;92385.91;;;2.57;81.64
7474;BME280;3778;42.572;23.426;2024-03-25T04:14:47;92384.38;;;2.56;81.10
7474;BME280;3778;42.572;23.426;2024-03-25T04:17:14;92384.38;;;2.56;80.85
7474;BME280;3778;42.572;23.426;2024-03-25T04:19:39;92388.94;;;2.54;81.00
7474;BME280;3778;42.572;23.426;2024-03-25T04:22:05;92393.78;;;2.56;79.18
7474;BME280;3778;42.572;23.426;2024-03-25T04:24:31;92385.91;;;2.57;80.40
7474;BME280;3778;42.572;23.426;2024-03-25T04:26:56;92393.03;;;2.60;78.55
7474;BME280;3778;42.572;23.426;2024-03-25T04:29:22;92403.78;;;2.62;77.17
7474;BME280;3778;42.572;23.426;2024-03-25T04:31:47;92410.91;;;2.65;77.13
7474;BME280;3778;42.572;23.426;2024-03-25T04:34:12;92406.31;;;2.62;77.90
7474;BME280;3778;42.572;23.426;2024-03-25T04:36:38;92408.81;;;2.57;76.55
7474;BME280;3778;42.572;23.426;2024-03-25T04:39:03;92430.94;;;2.57;76.99
7474;BME280;3778;42.572;23.426;2024-03-25T04:41:33;92444.72;;;2.61;77.01
7474;BME280;3778;42.572;23.426;2024-03-25T04:43:59;92450.88;;;2.70;74.65
7474;BME280;3778;42.572;23.426;2024-03-25T04:46:24;92421.63;;;2.67;73.78
7474;BME280;3778;42.572;23.426;2024-03-25T04:48:49;92410.09;;;2.60;75.16
7474;BME280;3778;42.572;23.426;2024-03-25T04:51:15;92437.09;;;2.66;74.58
7474;BME280;3778;42.572;23.426;2024-03-25T04:53:40;92441.09;;;2.57;75.47
7474;BME280;3778;42.572;23.426;2024-03-25T04:56:06;92436.72;;;2.52;75.94
7474;BME280;3778;42.572;23.426;2024-03-25T04:58:32;92450.41;;;2.46;75.63
7474;BME280;3778;42.572;23.426;2024-03-25T05:00:57;92446.59;;;2.49;75.20
7474;BME280;3778;42.572;23.426;2024-03-25T05:03:22;92436.63;;;2.42;76.92
7474;BME280;3778;42.572;23.426;2024-03-25T05:05:48;92439.66;;;2.39;76.94
7474;BME280;3778;42.572;23.426;2024-03-25T05:08:13;92453.97;;;2.45;75.44
7474;BME280;3778;42.572;23.426;2024-03-25T05:10:39;92442.66;;;2.36;76.53
7474;BME280;3778;42.572;23.426;2024-03-25T05:13:04;92443.72;;;2.40;74.79
7474;BME280;3778;42.572;23.426;2024-03-25T05:15:30;92451.06;;;2.36;78.65
7474;BME280;3778;42.572;23.426;2024-03-25T05:17:56;92469.09;;;2.35;78.78
7474;BME280;3778;42.572;23.426;2024-03-25T05:20:21;92471.94;;;2.38;78.04
7474;BME280;3778;42.572;23.426;2024-03-25T05:22:47;92472.91;;;2.32;76.82
7474;BME280;3778;42.572;23.426;2024-03-25T05:25:12;92489.19;;;2.36;78.54
7474;BME280;3778;42.572;23.426;2024-03-25T05:27:38;92477.03;;;2.38;76.92
7474;BME280;3778;42.572;23.426;2024-03-25T05:30:03;92481.63;;;2.41;78.40
7474;BME280;3778;42.572;23.426;2024-03-25T05:32:29;92491.28;;;2.39;78.15
7474;BME280;3778;42.572;23.426;2024-03-25T05:34:54;92494.41;;;2.47;77.79
7474;BME280;3778;42.572;23.426;2024-03-25T05:37:20;92502.34;;;2.50;76.57
7474;BME280;3778;42.572;23.426;2024-03-25T05:39:45;92497.72;;;2.47;76.68
7474;BME280;3778;42.572;23.426;2024-03-25T05:42:11;92500.25;;;2.47;77.67
7474;BME280;3778;42.572;23.426;2024-03-25T05:44:36;92513.22;;;2.46;76.60
7474;BME280;3778;42.572;23.426;2024-03-25T05:47:01;92509.41;;;2.48;76.89
7474;BME280;3778;42.572;23.426;2024-03-25T05:49:27;92508.44;;;2.49;78.06
7474;BME280;3778;42.572;23.426;2024-03-25T05:51:53;92494.47;;;2.52;75.56
7474;BME280;3778;42.572;23.426;2024-03-25T05:54:18;92505.41;;;2.52;73.89
7474;BME280;3778;42.572;23.426;2024-03-25T05:56:44;92519.94;;;2.57;74.58
7474;BME280;3778;42.572;23.426;2024-03-25T05:59:09;92528.41;;;2.62;75.55
7474;BME280;3778;42.572;23.426;2024-03-25T06:01:35;92530.47;;;2.65;75.33
7474;BME280;3778;42.572;23.426;2024-03-25T06:04:03;92535.31;;;2.67;73.05
7474;BME280;3778;42.572;23.426;2024-03-25T06:06:28;92536.91;;;2.73;74.36
7474;BME280;3778;42.572;23.426;2024-03-25T06:08:54;92543.13;;;2.60;74.03
7474;BME280;3778;42.572;23.426;2024-03-25T06:11:19;92547.03;;;2.68;72.84
7474;BME280;3778;42.572;23.426;2024-03-25T06:13:48;92549.22;;;2.59;72.81
7474;BME280;3778;42.572;23.426;2024-03-25T06:16:14;92542.66;;;2.63;73.66
7474;BME280;3778;42.572;23.426;2024-03-25T06:18:39;92559.00;;;2.73;74.54
7474;BME280;3778;42.572;23.426;2024-03-25T06:21:07;92556.06;;;2.81;73.92
7474;BME280;3778;42.572;23.426;2024-03-25T06:23:33;92563.44;;;2.82;73.85
7474;BME280;3778;42.572;23.426;2024-03-25T06:25:58;92547.72;;;2.85;73.88
7474;BME280;3778;42.572;23.426;2024-03-25T06:28:24;92560.97;;;2.87;73.47
7474;BME280;3778;42.572;23.426;2024-03-25T06:30:51;92562.31;;;2.95;73.98
7474;BME280;3778;42.572;23.426;2024-03-25T06:33:36;92558.53;;;2.98;71.64
7474;BME280;3778;42.572;23.426;2024-03-25T06:36:20;92559.09;;;3.05;73.23
7474;BME280;3778;42.572;23.426;2024-03-25T06:38:46;92578.72;;;3.09;70.41
7474;BME280;3778;42.572;23.426;2024-03-25T06:41:12;92565.28;;;3.14;69.92
7474;BME280;3778;42.572;23.426;2024-03-25T06:43:38;92560.81;;;3.26;71.87
7474;BME280;3778;42.572;23.426;2024-03-25T06:46:04;92572.91;;;3.41;68.48
7474;BME280;3778;42.572;23.426;2024-03-25T06:48:29;92576.63;;;3.60;68.72
7474;BME280;3778;42.572;23.426;2024-03-25T06:50:59;92572.09;;;3.67;67.79
7474;BME280;3778;42.572;23.426;2024-03-25T06:53:25;92590.09;;;3.56;68.02
7474;BME280;3778;42.572;23.426;2024-03-25T06:55:57;92601.16;;;3.71;67.39
7474;BME280;3778;42.572;23.426;2024-03-25T06:58:24;92611.34;;;3.39;68.21
7474;BME280;3778;42.572;23.426;2024-03-25T07:00:50;92605.53;;;3.44;68.66
7474;BME280;3778;42.572;23.426;2024-03-25T07:03:19;92609.19;;;3.53;68.37
7474;BME280;3778;42.572;23.426;2024-03-25T07:05:46;92606.38;;;3.55;68.82
7474;BME280;3778;42.572;23.426;2024-03-25T07:08:12;92615.09;;;3.64;68.05
7474;BME280;3778;42.572;23.426;2024-03-25T07:10:38;92616.22;;;3.73;66.30
7474;BME280;3778;42.572;23.426;2024-03-25T07:13:04;92599.22;;;3.84;68.03
7474;BME280;3778;42.572;23.426;2024-03-25T07:15:31;92597.47;;;3.89;68.29
7474;BME280;3778;42.572;23.426;2024-03-25T07:17:56;92604.66;;;3.97;67.93
7474;BME280;3778;42.572;23.426;2024-03-25T07:20:23;92596.34;;;4.12;66.57
7474;BME280;3778;42.572;23.426;2024-03-25T07:22:48;92600.06;;;4.42;68.09
7474;BME280;3778;42.572;23.426;2024-03-25T07:25:14;92608.19;;;4.34;66.82
7474;BME280;3778;42.572;23.426;2024-03-25T07:27:39;92606.72;;;4.48;67.00
7474;BME280;3778;42.572;23.426;2024-03-25T07:30:06;92630.63;;;4.32;64.09
7474;BME280;3778;42.572;23.426;2024-03-25T07:32:35;92603.13;;;4.39;64.38
7474;BME280;3778;42.572;23.426;2024-03-25T07:35:00;92608.25;;;4.44;66.13
7474;BME280;3778;42.572;23.426;2024-03-25T07:37:26;92592.75;;;4.61;65.60
7474;BME280;3778;42.572;23.426;2024-03-25T07:39:51;92609.81;;;4.55;64.26
7474;BME280;3778;42.572;23.426;2024-03-25T07:42:17;92599.72;;;4.75;63.46
7474;BME280;3778;42.572;23.426;2024-03-25T07:44:43;92612.97;;;4.67;64.23
7474;BME280;3778;42.572;23.426;2024-03-25T07:47:09;92613.69;;;4.63;61.92
7474;BME280;3778;42.572;23.426;2024-03-25T07:49:34;92617.06;;;4.78;62.69
7474;BME280;3778;42.572;23.426;2024-03-25T07:52:00;92613.06;;;5.03;64.61
7474;BME280;3778;42.572;23.426;2024-03-25T07:54:26;92614.13;;;5.12;62.39
7474;BME280;3778;42.572;23.426;2024-03-25T07:56:52;92613.31;;;5.01;62.49
7474;BME280;3778;42.572;23.426;2024-03-25T07:59:18;92617.63;;;4.91;61.48
7474;BME280;3778;42.572;23.426;2024-03-25T08:01:44;92620.72;;;4.93;59.26
7474;BME280;3778;42.572;23.426;2024-03-25T08:04:09;92615.63;;;5.08;61.11
7474;BME280;3778;42.572;23.426;2024-03-25T08:06:35;92619.78;;;5.39;62.70
7474;BME280;3778;42.572;23.426;2024-03-25T08:09:00;92618.81;;;5.71;64.24
7474;BME280;3778;42.572;23.426;2024-03-25T08:11:26;92614.94;;;5.43;60.80
7474;BME280;3778;42.572;23.426;2024-03-25T08:13:52;92618.25;;;5.38;60.62
7474;BME280;3778;42.572;23.426;2024-03-25T08:16:17;92614.13;;;5.17;60.46
7474;BME280;3778;42.572;23.426;2024-03-25T08:18:45;92616.22;;;5.46;60.11
7474;BME280;3778;42.572;23.426;2024-03-25T08:21:10;92621.34;;;5.56;61.98
7474;BME280;3778;42.572;23.426;2024-03-25T08:23:36;92638.72;;;5.49;59.99
7474;BME280;3778;42.572;23.426;2024-03-25T08:26:01;92627.47;;;5.45;60.95
7474;BME280;3778;42.572;23.426;2024-03-25T08:28:27;92649.94;;;5.37;60.40
7474;BME280;3778;42.572;23.426;2024-03-25T08:30:52;92636.66;;;5.35;61.41
7474;BME280;3778;42.572;23.426;2024-03-25T08:33:18;92641.78;;;5.46;59.79
7474;BME280;3778;42.572;23.426;2024-03-25T08:35:43;92646.91;;;5.51;58.99
7474;BME280;3778;42.572;23.426;2024-03-25T08:38:09;92651.03;;;5.77;60.46
7474;BME280;3778;42.572;23.426;2024-03-25T08:40:34;92652.03;;;5.86;59.89
7474;BME280;3778;42.572;23.426;2024-03-25T08:43:00;92649.72;;;5.59;60.00
7474;BME280;3778;42.572;23.426;2024-03-25T08:45:25;92657.91;;;5.56;62.82
7474;BME280;3778;42.572;23.426;2024-03-25T08:48:11;92648.94;;;5.64;61.13
7474;BME280;3778;42.572;23.426;2024-03-25T08:50:36;92639.22;;;5.51;60.12
7474;BME280;3778;42.572;23.426;2024-03-25T08:53:03;92663.47;;;5.23;58.90
7474;BME280;3778;42.572;23.426;2024-03-25T08:55:29;92662.91;;;5.10;60.75
7474;BME280;3778;42.572;23.426;2024-03-25T08:57:54;92658.84;;;5.25;62.91
7474;BME280;3778;42.572;23.426;2024-03-25T09:00:20;92654.59;;;5.66;59.92
7474;BME280;3778;42.572;23.426;2024-03-25T09:02:46;92648.22;;;5.89;59.37
7474;BME280;3778;42.572;23.426;2024-03-25T09:05:11;92671.94;;;5.49;57.45
7474;BME280;3778;42.572;23.426;2024-03-25T09:07:39;92663.47;;;5.33;57.77
7474;BME280;3778;42.572;23.426;2024-03-25T09:10:05;92653.53;;;5.36;59.85
7474;BME280;3778;42.572;23.426;2024-03-25T09:12:49;92670.91;;;5.45;59.86
7474;BME280;3778;42.572;23.426;2024-03-25T09:15:14;92671.69;;;5.50;60.61
7474;BME280;3778;42.572;23.426;2024-03-25T09:17:40;92659.41;;;5.37;60.89
7474;BME280;3778;42.572;23.426;2024-03-25T09:20:06;92664.81;;;5.81;59.20
7474;BME280;3778;42.572;23.426;2024-03-25T09:22:58;92663.59;;;5.99;57.89
7474;BME280;3778;42.572;23.426;2024-03-25T09:25:23;92670.97;;;5.90;56.13
7474;BME280;3778;42.572;23.426;2024-03-25T09:27:50;92667.94;;;5.94;58.34
7474;BME280;3778;42.572;23.426;2024-03-25T09:30:16;92667.13;;;5.88;58.52
7474;BME280;3778;42.572;23.426;2024-03-25T09:32:43;92680.72;;;5.99;60.14
7474;BME280;3778;42.572;23.426;2024-03-25T09:35:09;92695.81;;;6.05;58.11
7474;BME280;3778;42.572;23.426;2024-03-25T09:37:35;92680.44;;;5.90;58.53
7474;BME280;3778;42.572;23.426;2024-03-25T09:40:01;92664.34;;;6.30;58.93
7474;BME280;3778;42.572;23.426;2024-03-25T09:42:28;92675.88;;;6.02;57.38
7474;BME280;3778;42.572;23.426;2024-03-25T09:44:54;92685.06;;;6.39;57.96
7474;BME280;3778;42.572;23.426;2024-03-25T09:47:21;92690.97;;;6.14;56.60
7474;BME280;3778;42.572;23.426;2024-03-25T09:49:46;92676.88;;;6.16;56.14
7474;BME280;3778;42.572;23.426;2024-03-25T09:52:12;92677.41;;;6.13;57.88
7474;BME280;3778;42.572;23.426;2024-03-25T09:54:38;92670.75;;;6.38;56.82
7474;BME280;3778;42.572;23.426;2024-03-25T09:57:04;92679.19;;;6.33;54.78
7474;BME280;3778;42.572;23.426;2024-03-25T09:59:30;92684.81;;;6.45;53.65
7474;BME280;3778;42.572;23.426;2024-03-25T10:01:58;92689.59;;;6.83;54.73
7474;BME280;3778;42.572;23.426;2024-03-25T10:04:23;92684.00;;;6.70;53.09
7474;BME280;3778;42.572;23.426;2024-03-25T10:06:49;92690.94;;;6.44;55.43
7474;BME280;3778;42.572;23.426;2024-03-25T10:09:19;92689.16;;;6.55;55.58
7474;BME280;3778;42.572;23.426;2024-03-25T10:11:47;92700.38;;;6.64;55.32
7474;BME280;3778;42.572;23.426;2024-03-25T10:14:12;92685.31;;;6.17;55.97
7474;BME280;3778;42.572;23.426;2024-03-25T10:16:38;92703.25;;;6.02;56.44
7474;BME280;3778;42.572;23.426;2024-03-25T10:19:03;92709.09;;;5.92;56.99
7474;BME280;3778;42.572;23.426;2024-03-25T10:21:29;92709.38;;;6.06;57.84
7474;BME280;3778;42.572;23.426;2024-03-25T10:23:54;92698.88;;;5.97;58.90
7474;BME280;3778;42.572;23.426;2024-03-25T10:26:31;92707.31;;;5.98;58.59
7474;BME280;3778;42.572;23.426;2024-03-25T10:29:04;92702.94;;;5.83;57.77
7474;BME280;3778;42.572;23.426;2024-03-25T10:31:31;92712.97;;;5.95;57.39
7474;BME280;3778;42.572;23.426;2024-03-25T10:33:58;92697.38;;;6.32;57.05
7474;BME280;3778;42.572;23.426;2024-03-25T10:36:24;92693.78;;;6.17;55.35
7474;BME280;3778;42.572;23.426;2024-03-25T10:38:59;92696.09;;;6.19;53.97
7474;BME280;3778;42.572;23.426;2024-03-25T10:41:27;92699.13;;;6.52;54.60
7474;BME280;3778;42.572;23.426;2024-03-25T10:43:53;92709.09;;;6.48;54.58
7474;BME280;3778;42.572;23.426;2024-03-25T10:46:20;92696.59;;;6.31;53.22
7474;BME280;3778;42.572;23.426;2024-03-25T10:51:15;92692.22;;;7.37;51.97
7474;BME280;3778;42.572;23.426;2024-03-25T10:53:41;92699.59;;;7.49;51.72
7474;BME280;3778;42.572;23.426;2024-03-25T10:56:08;92711.50;;;7.24;52.02
7474;BME280;3778;42.572;23.426;2024-03-25T10:58:34;92689.69;;;7.32;50.80
7474;BME280;3778;42.572;23.426;2024-03-25T11:01:00;92706.06;;;7.36;49.60
7474;BME280;3778;42.572;23.426;2024-03-25T11:03:26;92700.66;;;7.43;49.45
7474;BME280;3778;42.572;23.426;2024-03-25T11:05:53;92701.50;;;7.28;48.40
7474;BME280;3778;42.572;23.426;2024-03-25T11:08:18;92700.72;;;7.28;48.35
7474;BME280;3778;42.572;23.426;2024-03-25T11:10:45;92718.59;;;7.48;47.34
7474;BME280;3778;42.572;23.426;2024-03-25T11:13:14;92691.38;;;7.52;48.41
7474;BME280;3778;42.572;23.426;2024-03-25T11:15:47;92686.03;;;7.43;48.83
7474;BME280;3778;42.572;23.426;2024-03-25T11:18:13;92680.66;;;7.45;47.07
7474;BME280;3778;42.572;23.426;2024-03-25T11:20:39;92696.44;;;7.62;47.69
7474;BME280;3778;42.572;23.426;2024-03-25T11:23:12;92665.50;;;7.53;47.96
7474;BME280;3778;42.572;23.426;2024-03-25T11:25:39;92690.34;;;6.98;45.91
7474;BME280;3778;42.572;23.426;2024-03-25T11:28:05;92683.72;;;6.77;48.24
7474;BME280;3778;42.572;23.426;2024-03-25T11:30:31;92683.63;;;7.08;48.17
7474;BME280;3778;42.572;23.426;2024-03-25T11:33:00;92689.53;;;7.63;48.70
7474;BME280;3778;42.572;23.426;2024-03-25T11:35:27;92671.97;;;7.80;48.81
7474;BME280;3778;42.572;23.426;2024-03-25T11:37:52;92683.81;;;8.15;49.90
7474;BME280;3778;42.572;23.426;2024-03-25T11:40:18;92693.38;;;8.04;46.20
7474;BME280;3778;42.572;23.426;2024-03-25T11:42:45;92673.00;;;8.18;45.55
7474;BME280;3778;42.572;23.426;2024-03-25T11:45:17;92689.78;;;8.00;47.03
7474;BME280;3778;42.572;23.426;2024-03-25T11:47:44;92709.75;;;8.14;47.79
7474;BME280;3778;42.572;23.426;2024-03-25T11:50:15;92691.56;;;7.11;50.28
7474;BME280;3778;42.572;23.426;2024-03-25T11:52:41;92722.16;;;6.62;49.79
7474;BME280;3778;42.572;23.426;2024-03-25T11:55:07;92703.16;;;6.78;51.90
7474;BME280;3778;42.572;23.426;2024-03-25T11:57:37;92676.81;;;6.78;50.25
7474;BME280;3778;42.572;23.426;2024-03-25T12:00:04;92711.38;;;6.80;50.07
7474;BME280;3778;42.572;23.426;2024-03-25T12:02:31;92703.03;;;7.29;51.33
7474;BME280;3778;42.572;23.426;2024-03-25T12:04:57;92702.06;;;7.64;48.71
7474;BME280;3778;42.572;23.426;2024-03-25T12:07:22;92697.44;;;7.71;47.75
7474;BME280;3778;42.572;23.426;2024-03-25T12:09:48;92720.28;;;7.63;48.81
7474;BME280;3778;42.572;23.426;2024-03-25T12:12:32;92709.59;;;7.45;49.11
7474;BME280;3778;42.572;23.426;2024-03-25T12:14:58;92724.63;;;7.67;49.54
7474;BME280;3778;42.572;23.426;2024-03-25T12:17:24;92692.22;;;7.82;50.05
7474;BME280;3778;42.572;23.426;2024-03-25T12:20:19;92721.91;;;7.53;50.46
7474;BME280;3778;42.572;23.426;2024-03-25T12:22:45;92691.94;;;7.88;48.41
7474;BME280;3778;42.572;23.426;2024-03-25T12:25:11;92723.31;;;7.75;48.32
7474;BME280;3778;42.572;23.426;2024-03-25T12:27:38;92725.59;;;7.76;48.42
7474;BME280;3778;42.572;23.426;2024-03-25T12:30:08;92714.34;;;7.72;47.89
7474;BME280;3778;42.572;23.426;2024-03-25T12:32:40;92698.41;;;8.20;48.73
7474;BME280;3778;42.572;23.426;2024-03-25T12:35:10;92702.16;;;8.32;47.47
7474;BME280;3778;42.572;23.426;2024-03-25T12:37:39;92714.00;;;7.89;47.28
7474;BME280;3778;42.572;23.426;2024-03-25T12:40:06;92719.16;;;7.84;47.26
7474;BME280;3778;42.572;23.426;2024-03-25T12:42:35;92709.44;;;7.76;47.70
7474;BME280;3778;42.572;23.426;2024-03-25T12:45:00;92748.09;;;7.40;48.59
7474;BME280;3778;42.572;23.426;2024-03-25T12:47:26;92727.03;;;7.53;49.34
7474;BME280;3778;42.572;23.426;2024-03-25T12:49:52;92713.16;;;7.99;49.57
7474;BME280;3778;42.572;23.426;2024-03-25T12:52:17;92727.00;;;8.03;49.30
7474;BME280;3778;42.572;23.426;2024-03-25T12:54:43;92734.09;;;7.77;46.81
7474;BME280;3778;42.572;23.426;2024-03-25T12:57:08;92717.19;;;8.10;46.19
7474;BME280;3778;42.572;23.426;2024-03-25T12:59:34;92741.38;;;7.99;46.43
7474;BME280;3778;42.572;23.426;2024-03-25T13:02:00;92747.38;;;7.89;45.47
7474;BME280;3778;42.572;23.426;2024-03-25T13:04:26;92705.41;;;8.72;44.87
7474;BME280;3778;42.572;23.426;2024-03-25T13:06:52;92703.31;;;9.03;44.82
7474;BME280;3778;42.572;23.426;2024-03-25T13:09:17;92728.50;;;8.77;45.68
7474;BME280;3778;42.572;23.426;2024-03-25T13:11:43;92714.06;;;8.52;45.27
7474;BME280;3778;42.572;23.426;2024-03-25T13:14:11;92720.25;;;8.80;44.09
7474;BME280;3778;42.572;23.426;2024-03-25T13:16:38;92722.00;;;9.76;43.98
7474;BME280;3778;42.572;23.426;2024-03-25T13:19:03;92724.94;;;9.88;42.90
7474;BME280;3778;42.572;23.426;2024-03-25T13:21:29;92719.88;;;9.40;43.37